createdAt,value
2023-04-13T00:00:21.754Z,0.50
2023-04-13T00:03:24.742Z,0.50
2023-04-13T00:06:29.123Z,0.35
2023-04-13T00:09:31.975Z,0.53
2023-04-13T00:12:34.973Z,0.50
2023-04-13T00:15:43.198Z,0.63
2023-04-13T00:18:46.197Z,0.40
2023-04-13T00:21:49.001Z,0.50
2023-04-13T00:24:54.560Z,0.40
2023-04-13T00:27:57.216Z,0.43
2023-04-13T00:31:01.375Z,0.40
2023-04-13T00:34:04.241Z,0.40
2023-04-13T00:37:07.444Z,0.57
2023-04-13T00:40:11.524Z,0.32
2023-04-13T00:43:15.000Z,0.60
2023-04-13T00:46:19.810Z,0.38
2023-04-13T00:49:23.077Z,0.50
2023-04-13T00:52:25.778Z,0.50
2023-04-13T00:55:28.838Z,0.30
2023-04-13T00:58:31.505Z,0.50
2023-04-13T01:01:35.812Z,0.40
2023-04-13T01:04:38.776Z,0.70
2023-04-13T01:07:49.310Z,0.43
2023-04-13T01:10:55.240Z,0.40
2023-04-13T01:14:02.708Z,0.50
2023-04-13T01:17:10.037Z,0.47
2023-04-13T01:20:14.411Z,0.50
2023-04-13T01:23:26.649Z,0.40
2023-04-13T01:26:38.749Z,0.50
2023-04-13T01:29:43.518Z,0.30
2023-04-13T01:32:46.417Z,0.50
2023-04-13T01:35:50.259Z,0.40
2023-04-13T01:38:53.028Z,0.50
2023-04-13T01:41:56.269Z,0.60
2023-04-13T01:45:00.247Z,0.40
2023-04-13T01:48:07.998Z,0.60
2023-04-13T01:51:13.594Z,0.47
2023-04-13T01:54:19.326Z,0.50
2023-04-13T01:57:23.066Z,0.60
2023-04-13T02:03:36.064Z,0.50
2023-04-13T02:06:39.489Z,0.50
2023-04-13T02:09:42.430Z,0.50
2023-04-13T02:12:45.137Z,0.60
2023-04-13T02:15:48.970Z,0.70
2023-04-13T02:18:51.794Z,0.60
2023-04-13T02:21:54.293Z,0.40
2023-04-13T02:24:57.705Z,0.60
2023-04-13T02:28:01.585Z,0.60
2023-04-13T02:31:06.137Z,0.50
2023-04-13T02:34:08.942Z,0.63
2023-04-13T02:37:11.902Z,0.50
2023-04-13T02:40:14.487Z,0.43
2023-04-13T02:43:17.696Z,0.60
2023-04-13T02:46:22.095Z,0.70
2023-04-13T02:49:24.813Z,1.00
2023-04-13T02:52:27.386Z,0.57
2023-04-13T02:55:29.878Z,0.40
2023-04-13T02:58:32.897Z,0.50
2023-04-13T03:01:36.823Z,0.50
2023-04-13T03:04:39.391Z,0.60
2023-04-13T03:07:42.166Z,0.50
2023-04-13T03:10:45.604Z,0.60
2023-04-13T03:13:48.107Z,0.65
2023-04-13T03:16:52.095Z,0.47
2023-04-13T03:19:54.883Z,0.50
2023-04-13T03:22:58.591Z,0.57
2023-04-13T03:29:04.033Z,0.50
2023-04-13T03:32:08.090Z,0.52
2023-04-13T03:35:11.435Z,0.50
2023-04-13T03:38:14.140Z,0.40
2023-04-13T03:41:17.190Z,0.80
2023-04-13T03:44:19.924Z,0.52
2023-04-13T03:47:23.814Z,0.57
2023-04-13T03:50:26.524Z,0.60
2023-04-13T03:53:29.404Z,0.50
2023-04-13T03:56:32.430Z,0.95
2023-04-13T03:59:35.292Z,0.47
2023-04-13T04:02:40.586Z,0.57
2023-04-13T04:05:43.448Z,0.40
2023-04-13T04:08:49.591Z,0.60
2023-04-13T04:11:52.383Z,0.60
2023-04-13T04:14:54.888Z,0.55
2023-04-13T04:17:59.218Z,0.63
2023-04-13T04:21:03.009Z,0.40
2023-04-13T04:24:08.897Z,0.80
2023-04-13T04:27:14.351Z,0.60
2023-04-13T04:30:18.975Z,0.40
2023-04-13T04:33:23.515Z,0.70
2023-04-13T04:36:26.478Z,0.80
2023-04-13T04:39:32.825Z,0.95
2023-04-13T04:42:35.463Z,0.90
2023-04-13T04:45:38.623Z,0.80
2023-04-13T04:48:42.757Z,0.70
2023-04-13T04:51:45.448Z,0.70
2023-04-13T04:54:48.199Z,2.23
2023-04-13T04:57:50.867Z,1.30
2023-04-13T05:00:53.782Z,1.00
2023-04-13T05:03:57.873Z,0.80
2023-04-13T05:07:00.529Z,1.00
2023-04-13T05:10:03.945Z,1.17
2023-04-13T05:13:07.888Z,1.08
2023-04-13T05:16:11.150Z,0.70
2023-04-13T05:19:15.219Z,1.05
2023-04-13T05:22:17.874Z,1.13
2023-04-13T05:25:20.570Z,0.80
2023-04-13T05:28:23.121Z,0.67
2023-04-13T05:31:26.058Z,0.67
2023-04-13T05:34:30.475Z,0.93
2023-04-13T05:37:33.055Z,1.43
2023-04-13T05:40:36.118Z,0.83
2023-04-13T05:43:38.725Z,0.73
2023-04-13T05:46:41.716Z,1.00
2023-04-13T05:49:45.725Z,0.90
2023-04-13T05:52:48.320Z,1.17
2023-04-13T05:55:51.164Z,1.33
2023-04-13T05:58:54.200Z,0.70
2023-04-13T06:01:57.299Z,1.38
2023-04-13T06:05:02.043Z,1.40
2023-04-13T06:08:04.866Z,0.70
2023-04-13T06:11:08.290Z,0.90
2023-04-13T06:14:10.847Z,1.02
2023-04-13T06:17:13.340Z,0.80
2023-04-13T06:20:17.592Z,0.53
2023-04-13T06:23:20.247Z,0.83
2023-04-13T06:26:22.902Z,0.73
2023-04-13T06:29:25.660Z,1.53
2023-04-13T06:32:28.457Z,1.20
2023-04-13T06:35:33.296Z,1.40
2023-04-13T06:38:35.928Z,0.73
2023-04-13T06:41:38.538Z,0.60
2023-04-13T06:44:41.281Z,0.67
2023-04-13T06:47:44.402Z,0.80
2023-04-13T06:50:48.415Z,0.80
2023-04-13T06:53:51.430Z,0.70
2023-04-13T06:56:53.944Z,0.77
2023-04-13T06:59:56.674Z,0.90
2023-04-13T07:02:59.558Z,0.90
2023-04-13T07:06:03.941Z,0.77
2023-04-13T07:09:06.618Z,1.00
2023-04-13T07:12:09.308Z,1.13
2023-04-13T07:15:12.073Z,0.80
2023-04-13T07:18:14.774Z,1.10
2023-04-13T07:21:18.787Z,0.80
2023-04-13T07:24:21.382Z,0.70
2023-04-13T07:27:24.088Z,0.77
2023-04-13T07:30:27.069Z,0.90
2023-04-13T07:33:29.640Z,0.60
2023-04-13T07:36:33.669Z,1.07
2023-04-13T07:39:36.368Z,0.93
2023-04-13T07:42:38.939Z,1.10
2023-04-13T07:45:41.554Z,0.73
2023-04-13T07:48:44.776Z,2.53
2023-04-13T07:51:48.856Z,0.77
2023-04-13T07:54:51.774Z,0.57
2023-04-13T07:57:54.712Z,1.05
2023-04-13T08:00:57.379Z,0.88
2023-04-13T08:04:00.299Z,0.90
2023-04-13T08:07:05.636Z,0.77
2023-04-13T08:10:09.579Z,0.57
2023-04-13T08:13:12.255Z,1.23
2023-04-13T08:16:15.934Z,0.93
2023-04-13T08:22:22.640Z,1.33
2023-04-13T08:25:25.205Z,1.30
2023-04-13T08:28:27.814Z,1.20
2023-04-13T08:31:32.268Z,1.83
2023-04-13T08:34:35.067Z,1.00
2023-04-13T08:37:39.515Z,1.05
2023-04-13T08:40:42.179Z,1.07
2023-04-13T08:43:44.842Z,0.70
2023-04-13T08:46:47.775Z,1.23
2023-04-13T08:49:51.243Z,1.13
2023-04-13T08:52:55.556Z,0.60
2023-04-13T08:56:00.735Z,0.73
2023-04-13T08:59:06.832Z,1.07
2023-04-13T09:02:09.837Z,1.30
2023-04-13T09:05:16.346Z,0.80
2023-04-13T09:08:21.261Z,0.90
2023-04-13T09:11:25.301Z,0.80
2023-04-13T09:14:27.899Z,1.37
2023-04-13T09:17:32.225Z,0.70
2023-04-13T09:20:35.119Z,0.90
2023-04-13T09:23:39.211Z,1.35
2023-04-13T09:26:43.112Z,0.80
2023-04-13T09:29:50.472Z,0.93
2023-04-13T09:33:05.191Z,1.10
2023-04-13T09:36:11.602Z,0.80
2023-04-13T09:39:15.948Z,1.00
2023-04-13T09:42:19.483Z,1.30
2023-04-13T09:48:24.456Z,0.90
2023-04-13T09:51:27.579Z,1.30
2023-04-13T09:54:31.733Z,1.15
2023-04-13T09:57:34.557Z,1.00
2023-04-13T10:00:38.349Z,0.95
2023-04-13T10:03:40.894Z,1.70
2023-04-13T10:06:44.852Z,0.50
2023-04-13T10:09:50.984Z,0.93
2023-04-13T10:12:55.727Z,1.03
2023-04-13T10:16:11.104Z,0.83
2023-04-13T10:19:15.409Z,1.43
2023-04-13T10:22:20.107Z,1.10
2023-04-13T10:25:33.295Z,0.90
2023-04-13T10:28:43.824Z,1.07
2023-04-13T10:31:47.758Z,1.33
2023-04-13T10:34:51.056Z,1.27
2023-04-13T10:37:57.905Z,1.00
2023-04-13T10:41:03.487Z,1.10
2023-04-13T10:44:08.042Z,1.00
2023-04-13T10:47:11.267Z,1.03
2023-04-13T10:50:18.364Z,1.30
2023-04-13T10:53:26.964Z,1.20
2023-04-13T10:56:31.067Z,1.17
2023-04-13T10:59:53.582Z,1.20
2023-04-13T11:03:02.431Z,1.10
2023-04-13T11:06:05.426Z,1.20
2023-04-13T11:09:11.533Z,1.75
2023-04-13T11:12:17.694Z,1.10
2023-04-13T11:15:21.971Z,1.33
2023-04-13T11:18:27.938Z,2.37
2023-04-13T11:21:31.746Z,1.00
2023-04-13T11:24:34.940Z,1.27
2023-04-13T11:27:39.147Z,1.27
2023-04-13T11:30:41.891Z,1.27
2023-04-13T11:33:49.685Z,1.15
2023-04-13T11:37:00.417Z,1.03
2023-04-13T11:40:10.288Z,1.20
2023-04-13T11:43:15.561Z,1.30
2023-04-13T11:46:25.205Z,0.80
2023-04-13T11:49:28.196Z,0.90
2023-04-13T11:52:31.744Z,1.63
2023-04-13T11:55:50.150Z,2.00
2023-04-13T11:58:57.674Z,2.00
2023-04-13T12:02:05.283Z,1.20
2023-04-13T12:05:12.430Z,0.93
2023-04-13T12:08:22.756Z,0.90
2023-04-13T12:14:54.095Z,1.13
2023-04-13T12:17:57.651Z,1.90
2023-04-13T12:21:02.737Z,0.80
2023-04-13T12:24:06.162Z,1.00
2023-04-13T12:30:24.078Z,1.03
2023-04-13T12:33:26.680Z,1.00
2023-04-13T12:36:31.601Z,1.07
2023-04-13T12:39:34.312Z,1.37
2023-04-13T12:42:38.013Z,1.10
2023-04-13T12:45:41.927Z,1.10
2023-04-13T12:48:44.826Z,0.97
2023-04-13T12:51:47.430Z,1.33
2023-04-13T12:54:49.934Z,1.30
2023-04-13T12:57:52.488Z,1.23
2023-04-13T13:00:56.767Z,1.20
2023-04-13T13:03:59.456Z,1.20
2023-04-13T13:07:02.089Z,1.50
2023-04-13T13:10:09.570Z,1.47
2023-04-13T13:13:18.972Z,1.63
2023-04-13T13:19:25.690Z,2.10
2023-04-13T13:22:29.136Z,1.92
2023-04-13T13:25:32.582Z,4.35
2023-04-13T13:28:36.366Z,2.30
2023-04-13T13:31:41.279Z,2.17
2023-04-13T13:34:43.993Z,1.90
2023-04-13T13:37:46.591Z,2.33
2023-04-13T13:40:49.230Z,1.53
2023-04-13T13:43:51.870Z,1.23
2023-04-13T13:46:55.840Z,1.20
2023-04-13T13:49:58.436Z,1.30
2023-04-13T13:53:04.236Z,1.77
2023-04-13T13:56:07.903Z,1.63
2023-04-13T13:59:10.481Z,0.70
2023-04-13T14:02:14.545Z,0.83
2023-04-13T14:05:17.565Z,1.00
2023-04-13T14:08:20.076Z,0.70
2023-04-13T14:11:23.013Z,0.70
2023-04-13T14:14:25.657Z,0.68
2023-04-13T14:17:29.639Z,0.70
2023-04-13T14:20:33.105Z,0.60
2023-04-13T14:23:37.413Z,1.33
2023-04-13T14:26:40.009Z,0.70
2023-04-13T14:29:42.648Z,0.70
2023-04-13T14:32:47.432Z,0.70
2023-04-13T14:35:50.092Z,0.60
2023-04-13T14:38:52.730Z,0.52
2023-04-13T14:41:56.612Z,0.63
2023-04-13T14:44:59.712Z,1.40
2023-04-13T14:48:03.834Z,1.00
2023-04-13T14:51:07.053Z,0.83
2023-04-13T14:54:10.014Z,1.10
2023-04-13T14:57:12.801Z,0.73
2023-04-13T15:00:21.578Z,1.08
2023-04-13T15:03:25.874Z,0.80
2023-04-13T15:06:28.802Z,1.30
2023-04-13T15:09:31.630Z,0.95
2023-04-13T15:12:34.288Z,0.70
2023-04-13T15:15:38.512Z,0.68
2023-04-13T15:18:42.452Z,0.60
2023-04-13T15:21:45.502Z,1.37
2023-04-13T15:24:48.637Z,0.93
2023-04-13T15:27:52.280Z,0.73
2023-04-13T15:33:58.637Z,0.50
2023-04-13T15:37:01.164Z,0.90
2023-04-13T15:40:07.637Z,2.00
2023-04-13T15:43:10.674Z,1.57
2023-04-13T15:46:13.423Z,2.60
2023-04-13T15:49:17.345Z,1.10
2023-04-13T15:52:19.980Z,1.30
2023-04-13T15:55:22.659Z,1.10
2023-04-13T15:58:25.493Z,1.10
2023-04-13T16:01:28.526Z,1.00
2023-04-13T16:04:32.802Z,0.80
2023-04-13T16:07:35.658Z,1.10
2023-04-13T16:10:38.332Z,1.20
2023-04-13T16:13:49.257Z,0.90
2023-04-13T16:16:53.668Z,0.90
2023-04-13T16:19:58.622Z,0.80
2023-04-13T16:23:04.770Z,0.90
2023-04-13T16:26:07.720Z,0.67
2023-04-13T16:29:10.329Z,1.00
2023-04-13T16:32:12.800Z,0.80
2023-04-13T16:35:16.982Z,0.70
2023-04-13T16:38:19.666Z,0.70
2023-04-13T16:41:22.504Z,1.00
2023-04-13T16:44:25.428Z,1.15
2023-04-13T16:47:28.197Z,0.68
2023-04-13T16:50:32.447Z,0.80
2023-04-13T16:53:35.334Z,0.70
2023-04-13T16:56:38.115Z,0.87
2023-04-13T16:59:40.918Z,0.80
2023-04-13T17:02:43.882Z,0.90
2023-04-13T17:05:48.066Z,0.80
2023-04-13T17:08:50.824Z,0.70
2023-04-13T17:11:53.485Z,1.15
2023-04-13T17:14:57.797Z,1.63
2023-04-13T17:18:01.054Z,1.00
2023-04-13T17:21:05.338Z,1.50
2023-04-13T17:24:09.309Z,1.00
2023-04-13T17:27:12.083Z,1.20
2023-04-13T17:30:14.981Z,0.90
2023-04-13T17:33:18.047Z,1.05
2023-04-13T17:36:22.610Z,1.30
2023-04-13T17:39:25.164Z,1.87
2023-04-13T17:42:28.430Z,1.20
2023-04-13T17:45:31.193Z,1.13
2023-04-13T17:48:33.858Z,1.40
2023-04-13T17:51:38.121Z,1.53
2023-04-13T17:54:40.784Z,1.63
2023-04-13T17:57:43.781Z,0.93
2023-04-13T18:00:46.566Z,1.17
2023-04-13T18:03:49.238Z,0.80
2023-04-13T18:06:54.284Z,0.83
2023-04-13T18:09:56.870Z,1.20
2023-04-13T18:13:00.608Z,1.30
2023-04-13T18:19:06.998Z,1.08
2023-04-13T18:22:11.763Z,1.20
2023-04-13T18:25:15.842Z,1.40
2023-04-13T18:28:18.626Z,1.10
2023-04-13T18:31:21.437Z,1.40
2023-04-13T18:34:23.981Z,1.70
2023-04-13T18:37:27.887Z,2.07
2023-04-13T18:40:30.477Z,1.70
2023-04-13T18:43:33.034Z,1.87
2023-04-13T18:46:35.836Z,1.40
2023-04-13T18:49:38.446Z,1.25
2023-04-13T18:52:42.294Z,1.33
2023-04-13T18:55:48.879Z,1.23
2023-04-13T18:58:51.498Z,1.63
2023-04-13T19:01:54.197Z,1.60
2023-04-13T19:04:57.361Z,1.40
2023-04-13T19:08:06.571Z,1.50
2023-04-13T19:11:09.232Z,1.47
2023-04-13T19:14:12.110Z,1.60
2023-04-13T19:17:16.470Z,1.73
2023-04-13T19:20:19.475Z,1.60
2023-04-13T19:23:23.508Z,1.40
2023-04-13T19:26:26.273Z,1.50
2023-04-13T19:29:30.362Z,1.65
2023-04-13T19:32:33.198Z,1.57
2023-04-13T19:35:36.023Z,1.20
2023-04-13T19:38:41.198Z,1.23
2023-04-13T19:41:43.771Z,1.50
2023-04-13T19:44:46.593Z,1.23
2023-04-13T19:47:49.198Z,1.10
2023-04-13T19:50:51.910Z,1.53
2023-04-13T19:53:57.586Z,1.30
2023-04-13T19:57:00.550Z,2.33
2023-04-13T20:00:04.900Z,1.30
2023-04-13T20:03:08.390Z,1.10
2023-04-13T20:06:11.124Z,0.80
2023-04-13T20:09:15.304Z,0.90
2023-04-13T20:12:18.054Z,1.07
2023-04-13T20:15:20.774Z,1.50
2023-04-13T20:18:23.506Z,1.53
2023-04-13T20:21:30.887Z,1.87
2023-04-13T20:24:34.951Z,1.60
2023-04-13T20:27:41.822Z,1.40
2023-04-13T20:30:44.606Z,1.40
2023-04-13T20:33:48.731Z,1.30
2023-04-13T20:36:51.410Z,0.80
2023-04-13T20:39:55.271Z,1.17
2023-04-13T20:42:59.280Z,1.20
2023-04-13T20:46:01.993Z,0.90
2023-04-13T20:49:05.567Z,1.00
2023-04-13T20:52:08.347Z,1.08
2023-04-13T20:55:12.733Z,1.50
2023-04-13T20:58:15.856Z,1.37
2023-04-13T21:01:18.536Z,1.30
2023-04-13T21:04:21.180Z,1.47
2023-04-13T21:07:24.017Z,1.20
2023-04-13T21:10:27.935Z,1.63
2023-04-13T21:13:30.822Z,1.40
2023-04-13T21:16:33.430Z,1.65
2023-04-13T21:19:37.794Z,1.93
2023-04-13T21:22:40.766Z,2.27
2023-04-13T21:25:44.925Z,2.27
2023-04-13T21:28:47.552Z,2.33
2023-04-13T21:31:50.164Z,1.67
2023-04-13T21:34:54.732Z,1.83
2023-04-13T21:37:57.261Z,2.13
2023-04-13T21:41:01.193Z,2.10
2023-04-13T21:44:03.813Z,2.40
2023-04-13T21:47:07.053Z,1.90
2023-04-13T21:50:10.550Z,2.08
2023-04-13T21:53:13.115Z,1.85
2023-04-13T21:56:17.095Z,1.60
2023-04-13T21:59:19.781Z,1.20
2023-04-13T22:02:22.559Z,1.40
2023-04-13T22:05:25.101Z,1.52
2023-04-13T22:08:27.642Z,1.30
2023-04-13T22:11:31.720Z,1.60
2023-04-13T22:14:34.309Z,1.60
2023-04-13T22:17:37.180Z,1.70
2023-04-13T22:20:39.757Z,1.50
2023-04-13T22:23:42.584Z,1.50
2023-04-13T22:26:46.751Z,1.50
2023-04-13T22:29:49.361Z,1.60
2023-04-13T22:32:51.966Z,1.67
2023-04-13T22:35:55.032Z,1.50
2023-04-13T22:38:57.604Z,1.38
2023-04-13T22:42:01.630Z,1.70
2023-04-13T22:45:04.531Z,1.63
2023-04-13T22:48:07.545Z,1.73
2023-04-13T22:51:10.066Z,1.17
2023-04-13T22:54:12.645Z,1.80
2023-04-13T22:57:16.561Z,1.87
2023-04-13T23:00:20.906Z,1.57
2023-04-13T23:03:23.751Z,1.67
2023-04-13T23:06:27.553Z,1.80
2023-04-13T23:12:33.919Z,2.33
2023-04-13T23:15:36.458Z,2.10
2023-04-13T23:18:39.040Z,2.07
2023-04-13T23:21:42.481Z,1.83
2023-04-13T23:24:45.011Z,1.70
2023-04-13T23:27:49.064Z,3.40
2023-04-13T23:30:51.620Z,1.80
2023-04-13T23:33:55.138Z,1.87
2023-04-13T23:36:57.842Z,1.90
2023-04-13T23:40:00.853Z,1.60
2023-04-13T23:43:04.737Z,1.80
2023-04-13T23:46:07.382Z,2.00
2023-04-13T23:49:10.069Z,1.50
2023-04-13T23:52:12.600Z,1.80
2023-04-13T23:55:15.533Z,2.57
2023-04-13T23:58:19.567Z,2.05
